Fruitvale, Washington
Current Conditions -  °F | °C
As of 11:30 AM on Saturday 20 Dec 2014 (Local Time) from KYKM Reporting Station
Haze Haze  
Wind Chill: 43°   Ceiling: 1100
Heat Index: 43°   Visibility: 5mi
Dew Point: 39°   Wind: 0mph
Humidity: 86%   Direction: NA
Pressure: 29.74"   Gusts: NA
Location:  46.5979°N, 120.534°W
Report Text: KYKM 201930Z 00000KT 5SM BR BKN011 BKN029 OVC037 06/04 A2974 RMK AO2 T00610039
Loading
Personal Weather Stations






























Interactive Weather Map New forecast layout! Learn more

10-Day Weather Forecast

Advertisements
Track Severe Weather on mobile